createdAt,value
2017-09-07T00:00:57.381Z,51.84
2017-09-07T00:02:06.647Z,51.65
2017-09-07T00:03:15.914Z,51.65
2017-09-07T00:04:24.878Z,51.75
2017-09-07T00:05:33.838Z,51.46
2017-09-07T00:06:42.855Z,51.84
2017-09-07T00:07:52.145Z,51.75
2017-09-07T00:09:00.814Z,51.65
2017-09-07T00:10:10.087Z,51.75
2017-09-07T00:11:19.677Z,51.75
2017-09-07T00:12:28.631Z,51.65
2017-09-07T00:13:37.614Z,51.75
2017-09-07T00:14:46.598Z,51.84
2017-09-07T00:15:56.201Z,51.84
2017-09-07T00:17:04.867Z,51.94
2017-09-07T00:18:13.825Z,51.65
2017-09-07T00:19:22.799Z,51.75
2017-09-07T00:20:31.437Z,51.84
2017-09-07T00:21:40.400Z,51.84
2017-09-07T00:22:49.678Z,51.56
2017-09-07T00:23:58.979Z,51.94
2017-09-07T00:25:08.229Z,51.94
2017-09-07T00:26:17.493Z,51.84
2017-09-07T00:27:26.134Z,51.46
2017-09-07T00:28:35.101Z,51.56
2017-09-07T00:29:44.056Z,51.56
2017-09-07T00:30:52.695Z,51.84
2017-09-07T00:32:02.007Z,51.65
2017-09-07T00:33:10.969Z,51.65
2017-09-07T00:34:20.254Z,51.84
2017-09-07T00:35:29.537Z,51.84
2017-09-07T00:36:38.830Z,51.75
2017-09-07T00:37:48.106Z,51.75
2017-09-07T00:38:57.079Z,52.04
2017-09-07T00:40:06.039Z,52.23
2017-09-07T00:41:14.996Z,52.52
2017-09-07T00:42:24.259Z,52.42
2017-09-07T00:43:33.225Z,52.71
2017-09-07T00:44:41.864Z,52.52
2017-09-07T00:45:50.517Z,52.2
2017-09-07T00:46:59.474Z,52.3
2017-09-07T00:48:08.436Z,52.4
2017-09-07T00:49:17.397Z,52.4
2017-09-07T00:50:26.669Z,52.2
2017-09-07T00:51:35.318Z,52.61
2017-09-07T00:52:44.281Z,52.52
2017-09-07T00:53:53.251Z,52.04
2017-09-07T00:55:02.212Z,52.04
2017-09-07T00:56:10.862Z,52.4
2017-09-07T00:57:19.502Z,51.84
2017-09-07T00:58:28.456Z,51.84
2017-09-07T00:59:37.096Z,51.94
2017-09-07T01:00:46.054Z,51.65
2017-09-07T01:01:55.316Z,51.56
2017-09-07T01:03:03.977Z,51.75
2017-09-07T01:04:12.627Z,51.75
2017-09-07T01:05:21.924Z,51.75
2017-09-07T01:06:31.222Z,51.75
2017-09-07T01:07:40.496Z,51.65
2017-09-07T01:08:49.140Z,51.75
2017-09-07T01:09:57.786Z,51.46
2017-09-07T01:11:06.437Z,51.75
2017-09-07T01:12:16.034Z,51.75
2017-09-07T01:13:25.629Z,51.65
2017-09-07T01:14:34.591Z,51.84
2017-09-07T01:15:44.192Z,51.84
2017-09-07T01:16:54.098Z,51.84
2017-09-07T01:18:03.377Z,51.84
2017-09-07T01:19:12.029Z,51.46
2017-09-07T01:20:21.332Z,51.46
2017-09-07T01:21:30.613Z,51.46
2017-09-07T01:22:39.252Z,51.84
2017-09-07T01:23:48.232Z,51.65
2017-09-07T01:24:57.199Z,51.94
2017-09-07T01:26:07.118Z,51.75
2017-09-07T01:27:15.749Z,51.65
2017-09-07T01:28:25.360Z,51.84
2017-09-07T01:29:34.632Z,51.94
2017-09-07T01:30:43.932Z,51.84
2017-09-07T01:31:53.203Z,51.65
2017-09-07T01:33:02.159Z,51.56
2017-09-07T01:34:10.818Z,51.65
2017-09-07T01:35:19.788Z,51.65
2017-09-07T01:36:29.068Z,51.56
2017-09-07T01:37:38.039Z,51.84
2017-09-07T01:38:47.313Z,51.75
2017-09-07T01:39:56.279Z,51.75
2017-09-07T01:41:05.572Z,51.75
2017-09-07T01:42:14.215Z,51.84
2017-09-07T01:43:23.189Z,51.75
2017-09-07T01:44:32.287Z,51.84
2017-09-07T01:45:41.886Z,51.65
2017-09-07T01:46:50.524Z,51.84
2017-09-07T01:47:59.474Z,51.65
2017-09-07T01:49:09.117Z,51.84
2017-09-07T01:50:18.080Z,51.84
2017-09-07T01:51:27.351Z,51.65
2017-09-07T01:52:36.945Z,51.75
2017-09-07T01:53:45.902Z,51.75
2017-09-07T01:54:54.869Z,51.46
2017-09-07T01:56:04.147Z,51.56
2017-09-07T01:57:13.111Z,51.36
2017-09-07T01:58:22.074Z,51.75
2017-09-07T01:59:31.361Z,51.75
2017-09-07T02:00:40.953Z,51.84
2017-09-07T02:01:50.255Z,51.84
2017-09-07T02:02:59.531Z,51.75
2017-09-07T02:04:08.806Z,51.65
2017-09-07T02:05:18.084Z,51.75
2017-09-07T02:06:27.048Z,51.65
2017-09-07T02:07:36.015Z,51.75
2017-09-07T02:08:44.965Z,51.84
2017-09-07T02:09:53.611Z,51.46
2017-09-07T02:11:02.580Z,51.36
2017-09-07T02:12:11.547Z,51.36
2017-09-07T02:13:20.828Z,51.17
2017-09-07T02:14:30.094Z,51.36
2017-09-07T02:15:38.740Z,51.36
2017-09-07T02:16:48.015Z,51.46
2017-09-07T02:17:57.352Z,51.36
2017-09-07T02:19:06.324Z,51.26
2017-09-07T02:20:14.962Z,51.65
2017-09-07T02:21:24.230Z,51.46
2017-09-07T02:22:32.870Z,51.26
2017-09-07T02:23:42.136Z,51.36
2017-09-07T02:24:51.117Z,51.65
2017-09-07T02:26:00.087Z,51.26
2017-09-07T02:27:09.362Z,51.36
2017-09-07T02:28:18.322Z,51.36
2017-09-07T02:29:27.277Z,50.88
2017-09-07T02:30:36.256Z,51.17
2017-09-07T02:31:45.230Z,50.88
2017-09-07T02:32:54.208Z,51.46
2017-09-07T02:34:03.163Z,50.98
2017-09-07T02:35:12.742Z,51.07
2017-09-07T02:36:22.059Z,51.07
2017-09-07T02:37:30.717Z,51.26
2017-09-07T02:38:39.984Z,50.88
2017-09-07T02:39:48.646Z,50.88
2017-09-07T02:40:57.604Z,50.88
2017-09-07T02:42:06.271Z,50.98
2017-09-07T02:43:15.227Z,51.36
2017-09-07T02:44:25.126Z,50.98
2017-09-07T02:45:34.401Z,50.88
2017-09-07T02:46:43.375Z,51.17
2017-09-07T02:47:52.649Z,51.36
2017-09-07T02:49:01.601Z,51.56
2017-09-07T02:50:10.558Z,51.17
2017-09-07T02:51:19.518Z,51.17
2017-09-07T02:52:28.167Z,51.17
2017-09-07T02:53:37.133Z,51.26
2017-09-07T02:54:46.733Z,51.56
2017-09-07T02:55:56.020Z,51.46
2017-09-07T02:57:04.669Z,51.36
2017-09-07T02:58:13.943Z,51.36
2017-09-07T02:59:23.232Z,51.36
2017-09-07T03:00:32.836Z,51.36
2017-09-07T03:01:42.112Z,51.26
2017-09-07T03:02:51.071Z,51.26
2017-09-07T03:03:59.710Z,51.07
2017-09-07T03:05:08.678Z,50.98
2017-09-07T03:06:17.702Z,51.75
2017-09-07T03:07:26.345Z,51.65
2017-09-07T03:08:35.319Z,51.75
2017-09-07T03:09:44.598Z,51.94
2017-09-07T03:10:53.562Z,51.65
2017-09-07T03:12:02.843Z,51.94
2017-09-07T03:13:11.804Z,51.75
2017-09-07T03:14:20.761Z,51.75
2017-09-07T03:15:30.728Z,51.84
2017-09-07T03:16:39.697Z,51.82
2017-09-07T03:17:48.979Z,51.56
2017-09-07T03:18:58.580Z,51.46
2017-09-07T03:20:07.231Z,51.46
2017-09-07T03:21:15.877Z,51.75
2017-09-07T03:22:25.141Z,51.84
2017-09-07T03:23:33.855Z,51.75
2017-09-07T03:24:43.159Z,51.75
2017-09-07T03:25:52.427Z,51.94
2017-09-07T03:27:01.125Z,51.65
2017-09-07T03:28:09.766Z,51.65
2017-09-07T03:29:18.413Z,51.94
2017-09-07T03:30:27.397Z,51.75
2017-09-07T03:31:36.668Z,51.75
2017-09-07T03:32:45.621Z,51.94
2017-09-07T03:33:54.899Z,51.72
2017-09-07T03:35:03.867Z,52.01
2017-09-07T03:36:12.836Z,52.01
2017-09-07T03:37:21.475Z,52.01
2017-09-07T03:38:30.740Z,52.49
2017-09-07T03:39:40.016Z,52.59
2017-09-07T03:40:48.983Z,52.2
2017-09-07T03:41:57.629Z,52.2
2017-09-07T03:43:06.281Z,52.3
2017-09-07T03:44:15.295Z,52.49
2017-09-07T03:45:24.572Z,52.49
2017-09-07T03:46:33.844Z,52.49
2017-09-07T03:47:43.132Z,52.4
2017-09-07T03:48:52.404Z,52.59
2017-09-07T03:50:01.361Z,52.4
2017-09-07T03:51:10.976Z,52.3
2017-09-07T03:52:20.243Z,52.49
2017-09-07T03:53:28.887Z,52.78
2017-09-07T03:54:37.851Z,52.3
2017-09-07T03:55:46.810Z,52.4
2017-09-07T03:56:56.086Z,52.4
2017-09-07T03:58:05.043Z,52.78
2017-09-07T03:59:14.015Z,52.56
2017-09-07T04:00:22.979Z,52.56
2017-09-07T04:01:32.256Z,52.78
2017-09-07T04:02:41.836Z,52.49
2017-09-07T04:03:51.112Z,52.3
2017-09-07T04:05:00.072Z,52.59
2017-09-07T04:06:09.031Z,52.75
2017-09-07T04:07:17.672Z,52.37
2017-09-07T04:08:26.947Z,52.66
2017-09-07T04:09:35.899Z,52.75
2017-09-07T04:10:45.173Z,52.56
2017-09-07T04:11:54.439Z,52.69
2017-09-07T04:13:03.721Z,52.37
2017-09-07T04:14:12.682Z,52.37
2017-09-07T04:15:22.595Z,52.47
2017-09-07T04:16:31.559Z,52.47
2017-09-07T04:17:40.199Z,52.56
2017-09-07T04:18:48.850Z,52.75
2017-09-07T04:19:58.122Z,53.33
2017-09-07T04:21:07.079Z,52.95
2017-09-07T04:22:16.352Z,53.23
2017-09-07T04:23:25.312Z,53.14
2017-09-07T04:24:34.271Z,52.95
2017-09-07T04:25:42.914Z,52.85
2017-09-07T04:26:51.888Z,53.23
2017-09-07T04:28:00.847Z,52.66
2017-09-07T04:29:09.797Z,52.75
2017-09-07T04:30:18.447Z,52.47
2017-09-07T04:31:27.084Z,52.37
2017-09-07T04:32:35.724Z,52.37
2017-09-07T04:33:44.706Z,52.37
2017-09-07T04:34:53.974Z,52.47
2017-09-07T04:36:02.925Z,52.47
2017-09-07T04:37:12.191Z,52.66
2017-09-07T04:38:21.152Z,52.37
2017-09-07T04:39:29.791Z,52.66
2017-09-07T04:40:39.692Z,52.56
2017-09-07T04:41:48.646Z,52.75
2017-09-07T04:42:57.292Z,52.37
2017-09-07T04:44:06.559Z,52.56
2017-09-07T04:45:15.833Z,52.47
2017-09-07T04:46:25.107Z,52.37
2017-09-07T04:47:34.066Z,52.37
2017-09-07T04:48:43.028Z,52.37
2017-09-07T04:49:52.295Z,52.47
2017-09-07T04:51:01.884Z,52.56
2017-09-07T04:52:11.158Z,52.66
2017-09-07T04:53:20.109Z,52.56
2017-09-07T04:54:29.388Z,52.56
2017-09-07T04:55:39.010Z,52.27
2017-09-07T04:56:48.611Z,52.08
2017-09-07T04:57:57.580Z,51.62
2017-09-07T04:59:06.858Z,51.72
2017-09-07T05:00:15.499Z,51.24
2017-09-07T05:01:24.774Z,51.24
2017-09-07T05:02:33.734Z,51.17
2017-09-07T05:03:43.333Z,50.78
2017-09-07T05:04:52.298Z,50.59
2017-09-07T05:06:01.258Z,50.69
2017-09-07T05:07:10.225Z,50.21
2017-09-07T05:08:19.189Z,50.21
2017-09-07T05:09:28.784Z,50.32
2017-09-07T05:10:38.058Z,50.04
2017-09-07T05:11:46.699Z,49.94
2017-09-07T05:12:55.975Z,50.04
2017-09-07T05:14:05.253Z,50.16
2017-09-07T05:15:14.529Z,50.13
2017-09-07T05:16:23.495Z,49.84
2017-09-07T05:17:32.766Z,49.68
2017-09-07T05:18:41.420Z,49.87
2017-09-07T05:19:50.706Z,49.68
2017-09-07T05:20:59.661Z,49.58
2017-09-07T05:22:08.951Z,49.58
2017-09-07T05:23:17.913Z,49.29
2017-09-07T05:24:26.560Z,49.12
2017-09-07T05:25:35.831Z,48.83
2017-09-07T05:26:45.107Z,48.83
2017-09-07T05:27:54.383Z,48.83
2017-09-07T05:29:03.659Z,48.93
2017-09-07T05:30:12.625Z,48.83
2017-09-07T05:31:21.579Z,48.74
2017-09-07T05:32:30.222Z,48.64
2017-09-07T05:33:39.187Z,48.74
2017-09-07T05:34:47.831Z,48.93
2017-09-07T05:35:58.045Z,48.76
2017-09-07T05:37:06.711Z,48.95
2017-09-07T05:38:15.669Z,48.95
2017-09-07T05:39:24.942Z,48.66
2017-09-07T05:40:34.217Z,48.76
2017-09-07T05:41:43.199Z,48.76
2017-09-07T05:42:52.474Z,48.66
2017-09-07T05:44:01.748Z,48.57
2017-09-07T05:45:11.354Z,48.57
2017-09-07T05:46:20.950Z,48.47
2017-09-07T05:47:29.928Z,48.57
2017-09-07T05:48:39.216Z,48.47
2017-09-07T05:49:48.182Z,48.49
2017-09-07T05:50:57.138Z,48.49
2017-09-07T05:52:05.789Z,48.47
2017-09-07T05:53:14.750Z,48.39
2017-09-07T05:54:23.719Z,48.39
2017-09-07T05:55:32.995Z,48.39
2017-09-07T05:56:41.955Z,48.59
2017-09-07T05:57:50.612Z,48.69
2017-09-07T05:58:59.910Z,48.49
2017-09-07T06:00:08.557Z,48.59
2017-09-07T06:01:17.879Z,48.69
2017-09-07T06:02:27.802Z,48.3
2017-09-07T06:03:36.781Z,48.69
2017-09-07T06:04:45.746Z,48.79
2017-09-07T06:05:54.412Z,48.49
2017-09-07T06:07:03.403Z,48.97
2017-09-07T06:08:12.689Z,48.76
2017-09-07T06:09:21.642Z,49.07
2017-09-07T06:10:30.614Z,49.15
2017-09-07T06:11:39.573Z,49.24
2017-09-07T06:12:49.165Z,49.05
2017-09-07T06:13:58.451Z,49.05
2017-09-07T06:15:07.136Z,49.05
2017-09-07T06:16:16.420Z,49.17
2017-09-07T06:17:25.086Z,48.95
2017-09-07T06:18:34.364Z,48.76
2017-09-07T06:19:43.011Z,48.95
2017-09-07T06:20:52.611Z,49.15
2017-09-07T06:22:01.900Z,48.88
2017-09-07T06:23:10.862Z,48.88
2017-09-07T06:24:19.827Z,48.97
2017-09-07T06:25:28.796Z,48.88
2017-09-07T06:26:38.401Z,48.88
2017-09-07T06:27:47.395Z,49.07
2017-09-07T06:28:56.756Z,48.88
2017-09-07T06:30:05.431Z,48.88
2017-09-07T06:31:14.720Z,48.97
2017-09-07T06:32:23.676Z,48.79
2017-09-07T06:33:32.630Z,48.59
2017-09-07T06:34:41.904Z,48.49
2017-09-07T06:35:51.199Z,48.49
2017-09-07T06:37:00.165Z,48.59
2017-09-07T06:38:09.156Z,48.69
2017-09-07T06:39:18.120Z,49.17
2017-09-07T06:40:27.105Z,48.69
2017-09-07T06:41:36.106Z,48.79
2017-09-07T06:42:45.370Z,48.69
2017-09-07T06:43:55.290Z,48.79
2017-09-07T06:45:04.569Z,48.49
2017-09-07T06:46:13.527Z,48.59
2017-09-07T06:47:22.804Z,48.49
2017-09-07T06:48:31.461Z,48.59
2017-09-07T06:49:40.108Z,48.69
2017-09-07T06:50:50.045Z,48.79
2017-09-07T06:51:59.628Z,48.59
2017-09-07T06:53:08.936Z,48.81
2017-09-07T06:54:18.197Z,48.9
2017-09-07T06:55:26.908Z,48.9
2017-09-07T06:56:36.184Z,49
2017-09-07T06:57:45.475Z,49.1
2017-09-07T06:58:54.758Z,48.88
2017-09-07T07:00:03.730Z,48.81
2017-09-07T07:01:13.648Z,49
2017-09-07T07:02:22.935Z,48.9
2017-09-07T07:03:32.221Z,49
2017-09-07T07:04:41.201Z,49.17
2017-09-07T07:05:50.186Z,49.07
2017-09-07T07:06:59.522Z,48.79
2017-09-07T07:08:08.830Z,48.71
2017-09-07T07:09:17.500Z,48.81
2017-09-07T07:10:26.470Z,48.9
2017-09-07T07:11:35.127Z,49
2017-09-07T07:12:44.744Z,49.29
2017-09-07T07:13:53.792Z,48.71
2017-09-07T07:15:02.817Z,49.1
2017-09-07T07:16:11.803Z,49.27
2017-09-07T07:17:21.404Z,49.39
2017-09-07T07:18:30.379Z,49.1
2017-09-07T07:19:39.030Z,49.19
2017-09-07T07:20:48.037Z,49.1
2017-09-07T07:21:57.040Z,49
2017-09-07T07:23:05.781Z,49.1
2017-09-07T07:24:14.546Z,49.19
2017-09-07T07:25:23.835Z,49.17
2017-09-07T07:26:32.817Z,49.49
2017-09-07T07:27:41.801Z,49.19
2017-09-07T07:28:51.126Z,49.29
2017-09-07T07:30:00.111Z,49.77
2017-09-07T07:31:09.089Z,49.68
2017-09-07T07:32:18.095Z,49.58
2017-09-07T07:33:26.743Z,49.58
2017-09-07T07:34:35.737Z,49.58
2017-09-07T07:35:45.040Z,49.58
2017-09-07T07:36:54.352Z,49.68
2017-09-07T07:38:03.329Z,49.58
2017-09-07T07:39:11.983Z,49.49
2017-09-07T07:40:21.279Z,49.58
2017-09-07T07:41:30.272Z,49.1
2017-09-07T07:42:40.204Z,49.39
2017-09-07T07:43:49.177Z,49.29
2017-09-07T07:44:58.152Z,49.49
2017-09-07T07:46:06.804Z,49.58
2017-09-07T07:47:15.773Z,49.49
2017-09-07T07:48:25.052Z,49.49
2017-09-07T07:49:34.329Z,49.49
2017-09-07T07:50:42.982Z,49.58
2017-09-07T07:51:51.956Z,49.49
2017-09-07T07:53:00.604Z,49.49
2017-09-07T07:54:09.272Z,49.49
2017-09-07T07:55:18.568Z,49.49
2017-09-07T07:56:27.860Z,49.49
2017-09-07T07:57:37.144Z,49.29
2017-09-07T07:58:46.114Z,49.39
2017-09-07T07:59:54.772Z,49.39
2017-09-07T08:01:03.736Z,49.68
2017-09-07T08:02:12.707Z,49.77
2017-09-07T08:03:21.670Z,49.29
2017-09-07T08:04:31.011Z,49.77
2017-09-07T08:05:39.988Z,49.77
2017-09-07T08:06:48.964Z,49.39
2017-09-07T08:07:57.981Z,49.39
2017-09-07T08:09:07.259Z,49.58
2017-09-07T08:10:16.868Z,49.1
2017-09-07T08:11:25.572Z,49.1
2017-09-07T08:12:34.221Z,49.12
2017-09-07T08:13:43.511Z,49.19
2017-09-07T08:14:52.496Z,49.12
2017-09-07T08:16:01.786Z,49.22
2017-09-07T08:17:10.472Z,49.51
2017-09-07T08:18:20.079Z,49.7
2017-09-07T08:19:29.359Z,49.68
2017-09-07T08:20:38.327Z,49.7
2017-09-07T08:21:47.609Z,49.7
2017-09-07T08:22:56.885Z,49.7
2017-09-07T08:24:05.882Z,49.68
2017-09-07T08:25:14.859Z,49.6
2017-09-07T08:26:23.830Z,49.51
2017-09-07T08:27:32.799Z,49.7
2017-09-07T08:28:41.455Z,49.7
2017-09-07T08:29:50.747Z,49.29
2017-09-07T08:30:59.391Z,49.32
2017-09-07T08:32:08.359Z,49.6
2017-09-07T08:33:17.331Z,49.7
2017-09-07T08:34:26.694Z,49.9
2017-09-07T08:35:35.368Z,49.99
2017-09-07T08:36:44.353Z,49.99
2017-09-07T08:37:53.641Z,50.07
2017-09-07T08:39:02.617Z,50.09
2017-09-07T08:40:12.218Z,50.09
2017-09-07T08:41:21.196Z,50.09
2017-09-07T08:42:29.850Z,49.7
2017-09-07T08:43:38.562Z,49.99
2017-09-07T08:44:48.159Z,49.7
2017-09-07T08:45:57.133Z,50.09
2017-09-07T08:47:06.424Z,50.07
2017-09-07T08:48:15.096Z,49.6
2017-09-07T08:49:24.367Z,49.8
2017-09-07T08:50:33.655Z,49.9
2017-09-07T08:51:42.942Z,49.9
2017-09-07T08:52:51.906Z,49.8
2017-09-07T08:54:01.197Z,49.8
2017-09-07T08:55:10.474Z,49.8
2017-09-07T08:56:19.428Z,49.87
2017-09-07T08:57:28.390Z,49.97
2017-09-07T08:58:37.034Z,49.97
2017-09-07T08:59:46.003Z,50.35
2017-09-07T09:00:54.962Z,49.99
2017-09-07T09:02:03.929Z,49.97
2017-09-07T09:03:12.893Z,49.87
2017-09-07T09:04:21.861Z,49.7
2017-09-07T09:05:31.456Z,49.99
2017-09-07T09:06:40.110Z,50.18
2017-09-07T09:07:49.725Z,49.99
2017-09-07T09:08:59.641Z,49.9
2017-09-07T09:10:08.944Z,49.9
2017-09-07T09:11:17.904Z,49.9
2017-09-07T09:12:27.192Z,49.7
2017-09-07T09:13:35.874Z,49.51
2017-09-07T09:14:45.164Z,50.09
2017-09-07T09:15:54.437Z,49.99
2017-09-07T09:17:03.404Z,49.9
2017-09-07T09:18:12.409Z,49.41
2017-09-07T09:19:21.044Z,49.6
2017-09-07T09:20:29.704Z,49.32
2017-09-07T09:21:38.686Z,49.8
2017-09-07T09:22:48.617Z,49.41
2017-09-07T09:23:57.921Z,49.7
2017-09-07T09:25:07.591Z,49.32
2017-09-07T09:26:16.571Z,49.32
2017-09-07T09:27:25.547Z,49.32
2017-09-07T09:28:34.192Z,49.32
2017-09-07T09:29:43.162Z,49.41
2017-09-07T09:30:52.439Z,49.12
2017-09-07T09:32:01.411Z,49.15
2017-09-07T09:33:10.394Z,49.12
2017-09-07T09:34:19.363Z,49.15
2017-09-07T09:35:28.018Z,49.12
2017-09-07T09:36:36.663Z,49.24
2017-09-07T09:37:45.968Z,49.12
2017-09-07T09:38:54.952Z,49.41
2017-09-07T09:40:04.560Z,49.15
2017-09-07T09:41:13.886Z,49.05
2017-09-07T09:42:23.203Z,49.54
2017-09-07T09:43:32.185Z,49.24
2017-09-07T09:44:41.148Z,49.54
2017-09-07T09:45:50.122Z,49.24
2017-09-07T09:46:59.402Z,49.24
2017-09-07T09:48:09.017Z,49.24
2017-09-07T09:49:18.001Z,49.15
2017-09-07T09:50:27.052Z,49.24
2017-09-07T09:51:36.339Z,49.15
2017-09-07T09:52:45.624Z,49.54
2017-09-07T09:53:54.917Z,49.73
2017-09-07T09:55:03.885Z,49.8
2017-09-07T09:56:13.497Z,49.73
2017-09-07T09:57:22.467Z,49.63
2017-09-07T09:58:31.455Z,49.54
2017-09-07T09:59:40.118Z,49.73
2017-09-07T10:00:49.398Z,49.44
2017-09-07T10:01:58.371Z,49.63
2017-09-07T10:03:07.658Z,49.82
2017-09-07T10:04:16.644Z,49.82
2017-09-07T10:05:25.620Z,49.34
2017-09-07T10:06:35.218Z,49.15
2017-09-07T10:07:45.054Z,49.15
2017-09-07T10:08:53.700Z,49.44
2017-09-07T10:10:03.301Z,49.05
2017-09-07T10:11:12.273Z,48.95
2017-09-07T10:12:21.562Z,49.34
2017-09-07T10:13:30.208Z,49.05
2017-09-07T10:14:39.188Z,49.24
2017-09-07T10:15:47.854Z,49.05
2017-09-07T10:16:56.853Z,48.76
2017-09-07T10:18:32.148Z,48.76
2017-09-07T10:19:41.435Z,49.05
2017-09-07T10:20:51.337Z,49.15
2017-09-07T10:22:00.998Z,49.15
2017-09-07T10:23:10.279Z,49.05
2017-09-07T10:24:18.935Z,49.05
2017-09-07T10:25:28.224Z,48.86
2017-09-07T10:26:37.201Z,48.88
2017-09-07T10:27:45.866Z,49.15
2017-09-07T10:28:54.829Z,48.95
2017-09-07T10:30:04.118Z,48.95
2017-09-07T10:31:13.410Z,48.95
2017-09-07T10:32:22.701Z,48.95
2017-09-07T10:33:31.667Z,48.97
2017-09-07T10:34:40.638Z,48.95
2017-09-07T10:35:49.918Z,48.97
2017-09-07T10:36:58.893Z,48.88
2017-09-07T10:38:07.544Z,48.69
2017-09-07T10:39:17.173Z,48.69
2017-09-07T10:40:26.759Z,48.88
2017-09-07T10:41:35.753Z,48.88
2017-09-07T10:42:44.716Z,48.88
2017-09-07T10:43:54.009Z,48.97
2017-09-07T10:45:03.950Z,49.07
2017-09-07T10:46:13.240Z,49.17
2017-09-07T10:47:22.529Z,48.97
2017-09-07T10:48:32.135Z,48.97
2017-09-07T10:49:41.117Z,48.97
2017-09-07T10:50:50.161Z,48.69
2017-09-07T10:51:59.124Z,49.37
2017-09-07T10:53:08.409Z,49.24
2017-09-07T10:54:18.015Z,48.86
2017-09-07T10:55:27.296Z,48.97
2017-09-07T10:56:36.586Z,49.07
2017-09-07T10:57:45.584Z,49.17
2017-09-07T10:58:54.868Z,49.17
2017-09-07T11:00:03.847Z,49.05
2017-09-07T11:01:12.851Z,48.79
2017-09-07T11:02:22.797Z,48.79
2017-09-07T11:03:31.786Z,49.56
2017-09-07T11:04:41.393Z,49.56
2017-09-07T11:05:50.680Z,49.56
2017-09-07T11:07:00.277Z,49.27
2017-09-07T11:08:09.260Z,49.05
2017-09-07T11:09:18.251Z,48.95
2017-09-07T11:10:27.553Z,48.88
2017-09-07T11:11:36.839Z,48.88
2017-09-07T11:12:45.806Z,48.97
2017-09-07T11:13:54.464Z,48.95
2017-09-07T11:15:03.430Z,49.37
2017-09-07T11:16:12.395Z,49.17
2017-09-07T11:17:21.355Z,49.27
2017-09-07T11:18:30.316Z,49.17
2017-09-07T11:19:39.625Z,49.27
2017-09-07T11:20:48.612Z,49.27
2017-09-07T11:21:58.225Z,49.27
2017-09-07T11:23:07.186Z,49.56
2017-09-07T11:24:16.801Z,49.37
2017-09-07T11:25:26.415Z,49.34
2017-09-07T11:26:36.012Z,49.75
2017-09-07T11:27:45.608Z,49.65
2017-09-07T11:28:54.586Z,49.65
2017-09-07T11:30:03.553Z,49.34
2017-09-07T11:31:12.519Z,49.63
2017-09-07T11:32:22.120Z,49.92
2017-09-07T11:33:31.089Z,49.92
2017-09-07T11:34:40.067Z,49.54
2017-09-07T11:35:49.351Z,49.73
2017-09-07T11:36:58.006Z,49.82
2017-09-07T11:38:06.981Z,49.63
2017-09-07T11:39:16.269Z,49.54
2017-09-07T11:40:25.247Z,49.65
2017-09-07T11:41:34.230Z,49.54
2017-09-07T11:42:42.883Z,49.34
2017-09-07T11:43:52.818Z,49.37
2017-09-07T11:45:02.436Z,49.65
2017-09-07T11:46:11.404Z,49.46
2017-09-07T11:47:20.686Z,49.46
2017-09-07T11:48:30.278Z,49.73
2017-09-07T11:49:39.264Z,49.46
2017-09-07T11:50:48.255Z,49.56
2017-09-07T11:51:57.261Z,49.65
2017-09-07T11:53:06.228Z,50.02
2017-09-07T11:54:15.195Z,49.92
2017-09-07T11:55:23.844Z,50.14
2017-09-07T11:56:33.130Z,50.04
2017-09-07T11:57:42.728Z,50.21
2017-09-07T11:58:52.007Z,50.24
2017-09-07T12:00:00.971Z,50.04
2017-09-07T12:01:10.252Z,49.65
2017-09-07T12:02:19.217Z,49.56
2017-09-07T12:03:29.120Z,49.46
2017-09-07T12:04:38.425Z,49.75
2017-09-07T12:05:48.041Z,49.56
2017-09-07T12:06:57.018Z,49.65
2017-09-07T12:08:05.673Z,49.75
2017-09-07T12:09:14.649Z,49.65
2017-09-07T12:10:23.927Z,49.75
2017-09-07T12:11:32.897Z,49.65
2017-09-07T12:12:41.553Z,49.75
2017-09-07T12:13:50.846Z,49.56
2017-09-07T12:15:00.441Z,49.75
2017-09-07T12:16:09.096Z,49.63
2017-09-07T12:17:18.377Z,49.56
2017-09-07T12:18:27.704Z,49.56
2017-09-07T12:19:36.669Z,49.92
2017-09-07T12:20:45.333Z,50.04
2017-09-07T12:21:54.615Z,50.14
2017-09-07T12:23:04.216Z,49.95
2017-09-07T12:24:12.894Z,49.95
2017-09-07T12:25:22.180Z,50.04
2017-09-07T12:26:31.154Z,50.02
2017-09-07T12:27:40.125Z,49.95
2017-09-07T12:28:48.786Z,49.82
2017-09-07T12:29:57.762Z,49.92
2017-09-07T12:31:06.428Z,50.02
2017-09-07T12:32:15.091Z,50.31
2017-09-07T12:33:23.804Z,50.21
2017-09-07T12:34:33.589Z,50.21
2017-09-07T12:35:43.195Z,50.21
2017-09-07T12:36:52.486Z,50.31
2017-09-07T12:38:02.081Z,50.02
2017-09-07T12:39:11.049Z,50.21
2017-09-07T12:40:20.011Z,50.12
2017-09-07T12:41:28.985Z,50.21
2017-09-07T12:42:37.635Z,50.21
2017-09-07T12:43:46.920Z,50.31
2017-09-07T12:44:56.211Z,50.12
2017-09-07T12:46:05.180Z,50.31
2017-09-07T12:47:13.830Z,50.21
2017-09-07T12:48:22.487Z,50.12
2017-09-07T12:49:31.457Z,50.12
2017-09-07T12:50:41.110Z,50.31
2017-09-07T12:51:50.087Z,50.31
2017-09-07T12:52:59.070Z,50.04
2017-09-07T12:54:08.360Z,50.12
2017-09-07T12:55:17.683Z,50.12
2017-09-07T12:56:26.653Z,49.92
2017-09-07T12:57:36.619Z,50.31
2017-09-07T12:58:46.225Z,50.31
2017-09-07T12:59:55.507Z,50.33
2017-09-07T13:01:04.167Z,49.92
2017-09-07T13:02:13.165Z,50.12
2017-09-07T13:03:22.450Z,50.12
2017-09-07T13:04:31.417Z,49.92
2017-09-07T13:05:40.393Z,49.92
2017-09-07T13:06:49.362Z,49.75
2017-09-07T13:07:58.642Z,49.95
2017-09-07T13:09:07.611Z,49.95
2017-09-07T13:10:16.638Z,50.04
2017-09-07T13:11:25.607Z,50.14
2017-09-07T13:12:34.891Z,49.92
2017-09-07T13:13:43.868Z,50.04
2017-09-07T13:14:52.841Z,50.4
2017-09-07T13:16:02.443Z,50.4
2017-09-07T13:17:11.749Z,50.4
2017-09-07T13:18:20.705Z,50.02
2017-09-07T13:19:29.680Z,50.21
2017-09-07T13:20:38.973Z,50.31
2017-09-07T13:21:48.263Z,50.31
2017-09-07T13:22:57.869Z,50.31
2017-09-07T13:24:06.845Z,50.12
2017-09-07T13:25:15.520Z,50.21
2017-09-07T13:26:24.817Z,50.31
2017-09-07T13:27:34.107Z,50.21
2017-09-07T13:28:42.779Z,50.31
2017-09-07T13:29:52.075Z,50.31
2017-09-07T13:31:01.052Z,50.31
2017-09-07T13:32:10.655Z,50.31
2017-09-07T13:33:19.967Z,50.24
2017-09-07T13:34:28.961Z,50.31
2017-09-07T13:35:38.256Z,50.12
2017-09-07T13:36:47.572Z,50.12
2017-09-07T13:37:56.538Z,50.21
2017-09-07T13:39:05.515Z,50.31
2017-09-07T13:40:14.488Z,50.33
2017-09-07T13:41:23.457Z,50.31
2017-09-07T13:42:32.735Z,50.21
2017-09-07T13:43:41.708Z,50.31
2017-09-07T13:44:50.361Z,50.21
2017-09-07T13:45:59.654Z,50.31
2017-09-07T13:47:08.931Z,50.24
2017-09-07T13:48:18.213Z,50.02
2017-09-07T13:49:27.514Z,50.43
2017-09-07T13:50:36.475Z,50.12
2017-09-07T13:51:45.479Z,50.24
2017-09-07T13:52:54.442Z,49.92
2017-09-07T13:54:03.097Z,50.04
2017-09-07T13:55:12.068Z,50.12
2017-09-07T13:56:21.032Z,50.02
2017-09-07T13:57:29.687Z,50.12
2017-09-07T13:58:38.342Z,50.31
2017-09-07T13:59:47.008Z,50.12
2017-09-07T14:00:56.298Z,50.21
2017-09-07T14:02:04.974Z,50.21
2017-09-07T14:03:13.639Z,50.31
2017-09-07T14:04:22.280Z,50.12
2017-09-07T14:05:31.262Z,50.12
2017-09-07T14:06:40.234Z,50.5
2017-09-07T14:07:49.233Z,50.21
2017-09-07T14:08:57.886Z,50.31
2017-09-07T14:10:06.882Z,50.5
2017-09-07T14:11:16.168Z,50.6
2017-09-07T14:12:25.147Z,50.5
2017-09-07T14:13:34.432Z,50.5
2017-09-07T14:14:44.038Z,50.6
2017-09-07T14:15:52.734Z,50.4
2017-09-07T14:17:02.395Z,50.6
2017-09-07T14:18:11.715Z,50.4
2017-09-07T14:19:20.704Z,50.4
2017-09-07T14:20:29.671Z,50.4
2017-09-07T14:21:38.638Z,50.5
2017-09-07T14:22:47.936Z,50.5
2017-09-07T14:23:57.265Z,50.21
2017-09-07T14:25:06.546Z,50.4
2017-09-07T14:26:15.842Z,50.4
2017-09-07T14:27:24.493Z,50.4
2017-09-07T14:28:33.786Z,50.5
2017-09-07T14:29:42.760Z,50.5
2017-09-07T14:30:52.040Z,50.4
2017-09-07T14:32:01.001Z,50.5
2017-09-07T14:33:10.295Z,50.4
2017-09-07T14:34:18.955Z,50.4
2017-09-07T14:35:27.611Z,50.4
2017-09-07T14:36:36.581Z,50.5
2017-09-07T14:37:45.799Z,50.5
2017-09-07T14:38:55.079Z,50.5
2017-09-07T14:40:04.065Z,50.4
2017-09-07T14:41:13.354Z,50.5
2017-09-07T14:42:22.008Z,50.4
2017-09-07T14:43:31.611Z,50.5
2017-09-07T14:44:40.902Z,50.4
2017-09-07T14:45:49.551Z,50.4
2017-09-07T14:46:58.838Z,50.7
2017-09-07T14:48:07.825Z,50.7
2017-09-07T14:49:17.111Z,50.7
2017-09-07T14:50:25.779Z,50.96
2017-09-07T14:51:34.758Z,51.08
2017-09-07T14:52:44.048Z,50.7
2017-09-07T14:53:53.334Z,50.79
2017-09-07T14:55:02.306Z,50.48